createdAt,value
2019-03-26T00:02:13.394Z,38.97
2019-03-26T00:07:22.226Z,37.07
2019-03-26T00:12:28.299Z,37.53
2019-03-26T00:17:34.683Z,43.50
2019-03-26T00:22:41.583Z,38.60
2019-03-26T00:27:49.929Z,38.73
2019-03-26T00:32:57.725Z,35.43
2019-03-26T00:38:05.625Z,39.43
2019-03-26T00:43:12.218Z,27.60
2019-03-26T00:48:19.417Z,30.03
2019-03-26T00:53:26.274Z,30.93
2019-03-26T00:58:33.699Z,28.37
2019-03-26T01:03:42.963Z,30.37
2019-03-26T01:08:50.506Z,27.20
2019-03-26T01:14:00.009Z,30.70
2019-03-26T01:19:08.368Z,28.03
2019-03-26T01:24:16.987Z,34.10
2019-03-26T01:29:25.209Z,33.43
2019-03-26T01:34:45.247Z,29.00
2019-03-26T01:39:42.962Z,26.77
2019-03-26T01:44:49.941Z,33.20
2019-03-26T01:50:18.696Z,28.50
2019-03-26T01:55:24.781Z,24.23
2019-03-26T02:00:32.274Z,24.07
2019-03-26T02:05:42.669Z,23.63
2019-03-26T02:10:50.058Z,32.77
2019-03-26T02:15:56.134Z,24.20
2019-03-26T02:21:04.726Z,27.07
2019-03-26T02:26:12.734Z,27.83
2019-03-26T02:31:20.678Z,27.20
2019-03-26T02:36:26.819Z,31.23
2019-03-26T02:41:32.954Z,26.47
2019-03-26T02:46:39.893Z,27.83
2019-03-26T02:51:47.290Z,22.73
2019-03-26T02:56:53.931Z,24.33
2019-03-26T03:02:01.577Z,25.07
2019-03-26T03:07:09.541Z,22.63
2019-03-26T03:12:15.576Z,19.40
2019-03-26T03:17:23.762Z,21.33
2019-03-26T03:22:31.068Z,19.63
2019-03-26T03:27:40.007Z,22.33
2019-03-26T03:32:50.201Z,23.07
2019-03-26T03:37:56.763Z,21.67
2019-03-26T03:43:05.338Z,20.97
2019-03-26T03:48:12.905Z,19.87
2019-03-26T03:53:22.186Z,22.13
2019-03-26T03:58:30.189Z,22.47
2019-03-26T04:03:37.397Z,21.40
2019-03-26T04:08:44.066Z,24.50
2019-03-26T04:13:52.796Z,23.73
2019-03-26T04:18:59.393Z,30.07
2019-03-26T04:24:06.581Z,29.80
2019-03-26T04:29:15.163Z,29.30
2019-03-26T04:34:23.353Z,28.83
2019-03-26T04:39:32.629Z,38.30
2019-03-26T04:44:40.657Z,32.27
2019-03-26T04:49:48.726Z,33.07
2019-03-26T04:54:58.076Z,32.80
2019-03-26T05:00:05.639Z,32.17
2019-03-26T05:05:12.691Z,33.27
2019-03-26T05:10:18.868Z,32.67
2019-03-26T05:15:24.847Z,30.13
2019-03-26T05:20:32.144Z,29.30
2019-03-26T05:25:38.205Z,33.47
2019-03-26T05:30:45.632Z,32.13
2019-03-26T05:35:54.247Z,36.53
2019-03-26T05:41:02.376Z,35.77
2019-03-26T05:46:09.975Z,44.17
2019-03-26T05:51:18.000Z,39.87
2019-03-26T05:56:25.613Z,36.40
2019-03-26T06:01:31.583Z,33.67
2019-03-26T06:06:40.017Z,37.03
2019-03-26T06:11:47.682Z,33.80
2019-03-26T06:16:54.543Z,31.33
2019-03-26T06:22:01.197Z,38.03
2019-03-26T06:27:08.294Z,34.53
2019-03-26T06:32:16.117Z,33.23
2019-03-26T06:37:23.473Z,33.97
2019-03-26T06:42:32.057Z,29.90
2019-03-26T06:47:38.952Z,26.13
2019-03-26T06:52:45.840Z,28.27
2019-03-26T06:57:52.726Z,26.73
2019-03-26T07:03:00.661Z,26.17
2019-03-26T07:08:09.079Z,24.93
2019-03-26T07:13:16.490Z,30.13
2019-03-26T07:18:23.391Z,28.13
2019-03-26T07:23:49.923Z,31.80
2019-03-26T07:28:58.560Z,27.27
2019-03-26T07:34:07.175Z,29.13
2019-03-26T07:39:14.759Z,30.27
2019-03-26T07:44:21.662Z,34.57
2019-03-26T07:49:29.371Z,30.87
2019-03-26T07:54:38.665Z,32.43
2019-03-26T07:59:47.101Z,29.73
2019-03-26T08:04:53.178Z,31.20
2019-03-26T08:10:00.874Z,25.97
2019-03-26T08:15:28.164Z,26.73
2019-03-26T08:20:35.449Z,25.33
2019-03-26T08:25:43.397Z,25.20
2019-03-26T08:30:50.666Z,26.97
2019-03-26T08:36:01.158Z,26.23
2019-03-26T08:41:07.520Z,24.10
2019-03-26T08:46:15.030Z,25.93
2019-03-26T08:51:23.048Z,27.83
2019-03-26T08:56:31.466Z,26.70
2019-03-26T09:01:39.296Z,19.23
2019-03-26T09:06:45.268Z,25.67
2019-03-26T09:11:53.459Z,25.13
2019-03-26T09:17:20.599Z,19.70
2019-03-26T09:22:26.639Z,23.17
2019-03-26T09:27:35.282Z,17.57
2019-03-26T09:32:42.359Z,20.17
2019-03-26T09:37:48.437Z,15.17
2019-03-26T09:43:27.649Z,17.83
2019-03-26T09:48:36.525Z,17.90
2019-03-26T09:53:42.600Z,18.43
2019-03-26T09:58:51.333Z,16.47
2019-03-26T10:04:00.593Z,17.97
2019-03-26T10:09:08.366Z,21.57
2019-03-26T10:14:15.622Z,16.00
2019-03-26T10:19:21.679Z,15.13
2019-03-26T10:24:29.616Z,16.87
2019-03-26T10:29:35.668Z,17.33
2019-03-26T10:34:42.268Z,14.30
2019-03-26T10:39:48.324Z,14.07
2019-03-26T10:44:55.985Z,14.87
2019-03-26T10:50:01.998Z,13.67
2019-03-26T10:55:08.193Z,7.37
2019-03-26T11:00:15.670Z,10.37
2019-03-26T11:05:22.773Z,9.33
2019-03-26T11:10:28.745Z,14.43
2019-03-26T11:15:34.621Z,8.33
2019-03-26T11:20:40.548Z,14.40
2019-03-26T11:25:48.895Z,7.83
2019-03-26T11:30:55.296Z,12.13
2019-03-26T11:36:02.321Z,12.97
2019-03-26T11:41:10.000Z,10.17
2019-03-26T11:46:17.013Z,12.47
2019-03-26T11:51:23.787Z,11.47
2019-03-26T11:56:29.779Z,12.37
2019-03-26T12:01:37.996Z,8.37
2019-03-26T12:06:45.606Z,14.97
2019-03-26T12:11:52.183Z,16.30
2019-03-26T12:16:59.714Z,8.37
2019-03-26T12:22:07.903Z,10.30
2019-03-26T12:27:16.428Z,17.23
2019-03-26T12:32:23.196Z,8.67
2019-03-26T12:37:30.226Z,8.07
2019-03-26T12:42:37.100Z,9.13
2019-03-26T12:47:44.535Z,8.53
2019-03-26T12:52:51.435Z,5.93
2019-03-26T12:57:58.624Z,6.07
2019-03-26T13:03:06.536Z,8.87
2019-03-26T13:08:14.860Z,8.27
2019-03-26T13:13:21.046Z,4.53
2019-03-26T13:18:27.009Z,9.10
2019-03-26T13:23:34.004Z,10.00
2019-03-26T13:28:40.824Z,9.73
2019-03-26T13:33:47.645Z,13.77
2019-03-26T13:38:56.017Z,8.67
2019-03-26T13:44:24.133Z,17.63
2019-03-26T13:49:30.691Z,6.77
2019-03-26T13:54:37.716Z,10.50
2019-03-26T13:59:44.468Z,8.13
2019-03-26T14:04:52.700Z,12.40
2019-03-26T14:09:59.638Z,5.90
2019-03-26T14:15:07.313Z,9.87
2019-03-26T14:20:14.937Z,10.47
2019-03-26T14:25:23.037Z,6.23
2019-03-26T14:30:42.178Z,11.27
2019-03-26T14:35:48.922Z,10.03
2019-03-26T14:40:57.657Z,9.00
2019-03-26T14:46:04.346Z,9.60
2019-03-26T14:51:12.462Z,11.33
2019-03-26T14:56:19.349Z,12.37
2019-03-26T15:01:27.878Z,7.27
2019-03-26T15:06:34.891Z,9.53
2019-03-26T15:11:44.859Z,11.90
2019-03-26T15:16:53.376Z,11.27
2019-03-26T15:22:07.942Z,9.67
2019-03-26T15:27:15.401Z,11.90
2019-03-26T15:32:24.349Z,10.00
2019-03-26T15:37:31.713Z,11.93
2019-03-26T15:42:40.511Z,7.97
2019-03-26T15:47:47.334Z,14.30
2019-03-26T15:52:55.763Z,10.77
2019-03-26T15:58:02.653Z,7.77
2019-03-26T16:03:09.251Z,9.60
2019-03-26T16:08:16.444Z,10.53
2019-03-26T16:13:26.760Z,11.07
2019-03-26T16:18:32.650Z,10.67
2019-03-26T16:23:41.294Z,5.57
2019-03-26T16:28:48.501Z,10.67
2019-03-26T16:33:55.308Z,9.23
2019-03-26T16:39:03.688Z,9.67
2019-03-26T16:44:11.962Z,11.37
2019-03-26T16:49:18.555Z,11.40
2019-03-26T16:54:26.004Z,17.93
2019-03-26T16:59:33.569Z,12.90
2019-03-26T17:04:47.025Z,9.73
2019-03-26T17:09:56.537Z,12.63
2019-03-26T17:15:07.086Z,14.27
2019-03-26T17:20:14.556Z,10.20
2019-03-26T17:25:24.425Z,12.80
2019-03-26T17:30:35.497Z,9.63
2019-03-26T17:35:44.040Z,12.20
2019-03-26T17:40:51.680Z,14.27
2019-03-26T17:46:00.116Z,18.40
2019-03-26T17:51:08.494Z,17.07
2019-03-26T17:56:18.254Z,15.07
2019-03-26T18:01:26.076Z,13.27
2019-03-26T18:06:33.489Z,17.30
2019-03-26T18:11:43.140Z,9.30
2019-03-26T18:16:50.888Z,13.73
2019-03-26T18:21:59.197Z,10.63
2019-03-26T18:27:07.289Z,12.13
2019-03-26T18:32:14.302Z,13.03
2019-03-26T18:37:24.874Z,13.50
2019-03-26T18:42:52.167Z,20.87
2019-03-26T18:48:01.692Z,14.63
2019-03-26T18:53:08.268Z,18.07
2019-03-26T18:58:16.515Z,16.67
2019-03-26T19:03:24.120Z,20.30
2019-03-26T19:08:32.790Z,15.47
2019-03-26T19:13:39.674Z,19.83
2019-03-26T19:18:49.144Z,16.67
2019-03-26T19:24:04.149Z,18.27
2019-03-26T19:29:05.682Z,14.57
2019-03-26T19:34:12.462Z,15.53
2019-03-26T19:39:19.848Z,16.03
2019-03-26T19:44:26.971Z,15.87
2019-03-26T19:49:34.122Z,16.00
2019-03-26T19:54:42.811Z,16.40
2019-03-26T19:59:50.972Z,13.37
2019-03-26T20:04:58.110Z,13.33
2019-03-26T20:10:11.823Z,17.53
2019-03-26T20:15:20.871Z,14.20
2019-03-26T20:20:29.358Z,17.33
2019-03-26T20:25:36.522Z,19.53
2019-03-26T20:30:43.840Z,17.60
2019-03-26T20:35:55.745Z,18.80
2019-03-26T20:41:05.840Z,23.33
2019-03-26T20:46:15.791Z,18.87
2019-03-26T20:51:24.251Z,20.13
2019-03-26T20:56:32.133Z,16.37
2019-03-26T21:01:39.936Z,21.17
2019-03-26T21:06:47.191Z,19.93
2019-03-26T21:11:55.740Z,16.60
2019-03-26T21:17:02.568Z,19.00
2019-03-26T21:22:12.227Z,17.87
2019-03-26T21:27:19.475Z,20.60
2019-03-26T21:32:28.166Z,20.93
2019-03-26T21:37:36.649Z,18.33
2019-03-26T21:42:42.561Z,20.10
2019-03-26T21:47:52.148Z,20.20
2019-03-26T21:52:59.004Z,21.70
2019-03-26T21:58:05.912Z,21.30
2019-03-26T22:03:12.398Z,21.83
2019-03-26T22:08:18.770Z,21.50
2019-03-26T22:13:25.558Z,21.07
2019-03-26T22:18:31.426Z,23.73
2019-03-26T22:23:38.428Z,23.37
2019-03-26T22:28:45.335Z,20.80
2019-03-26T22:33:52.323Z,26.53
2019-03-26T22:38:59.034Z,18.07
2019-03-26T22:44:08.059Z,23.30
2019-03-26T22:49:15.248Z,25.23
2019-03-26T22:54:23.154Z,22.20
2019-03-26T22:59:29.682Z,21.27
2019-03-26T23:04:37.630Z,23.67
2019-03-26T23:09:45.640Z,25.83
2019-03-26T23:14:51.548Z,26.27
2019-03-26T23:19:57.148Z,27.30
2019-03-26T23:25:06.112Z,26.37
2019-03-26T23:30:13.901Z,30.70
2019-03-26T23:35:20.714Z,23.53
2019-03-26T23:40:26.371Z,25.07
2019-03-26T23:45:32.140Z,24.17
2019-03-26T23:50:37.688Z,22.90
2019-03-26T23:55:44.346Z,30.60
